Trang, Thailand

4:09 PM ICT on October 23, 2014 (GMT +0700)
Trang | Change Station
CLOSE
Current Station
Airport
Location: Trang,
Elevation: 52 ft
Nearby Weather Stations

Elev 52 ft 7.51 °N, 99.62 °E | Updated 1 hour ago

Mostly Cloudy
Mostly Cloudy
84 °F
Feels Like 94 °F
N
5
Wind Variable Wind from WNW

Today
High -- | Low -- °F
--% Chance of Precip.
Yesterday
High -- | Low -- °F
Precip. -- in
6:08 AM 6:03 PM
Waning Crescent, 0% visible
Pressure 29.77 in
Visibility 5.0 miles
Clouds Few 1800 ft
Scattered Clouds 2500 ft
Mostly Cloudy 12000 ft
Heat Index 94 °F
Dew Point 77 °F
Humidity 79%
Rainfall 0.00 in
Snow Depth Not available.
UV 4 out of 12
Pollen Not available.
Air Quality Not available.
Flu Activity Not available.
METAR VTST 230800Z 29004KT 8000 FEW018 SCT025 BKN120 29/25 Q1008 RWY08 INFO I

More Conditions Fewer Conditions

Pressure 29.77 in
Visibility 5.0 miles
Clouds Few 1800 ft
Scattered Clouds 2500 ft
Mostly Cloudy 12000 ft
Heat Index 94 °F
Dew Point 77 °F
Humidity 79%
Rainfall 0.00 in
Snow Depth Not available.
UV 4 out of 12
Pollen Not available.
Air Quality Not available.
Flu Activity Not available.
METAR VTST 230800Z 29004KT 8000 FEW018 SCT025 BKN120 29/25 Q1008 RWY08 INFO I

More Conditions Fewer Conditions

10-Day Weather Forecast

Almanac

Astronomy

Oct. 23, 2014 Rise Set
Actual Time 6:08 AM ICT 6:03 PM ICT
Civil Twilight 5:47 AM ICT 6:24 PM ICT
Nautical Twilight 5:22 AM ICT 6:48 PM ICT
Astronomical Twilight 4:58 AM ICT 7:13 PM ICT
Moon 5:27 AM ICT 5:40 PM ICT
Length of Visible Light 12h 37m
Length of Day
11h 54m
Tomorrow will be 0m 22s shorter.
Waning Crescent, 0% of the Moon is Illuminated
Today
Waning Crescent
Oct 23
New
Oct 30
First Quarter
Nov 6
Full
Nov 14
Last Quarter

Yesterday's Extremes

Country Highs Country Lows

Community

WunderPhotos

Upload Photos

1,764,198 photos uploaded!

Nearby

Snow Depth

Not available.

Earthquake Activity

City Distance Mag. Time & Date
No recent earthquake activity has been reported nearby.
Minimum magnitude displayed is 2.5.

Coastal Water Temperatures

Place Temperature
No Stations Reporting

Nearby Weather Stations